createdAt,value
2022-12-17T00:01:59.585Z,1006.37
2022-12-17T00:06:59.415Z,1006.38
2022-12-17T00:11:59.363Z,1006.38
2022-12-17T00:16:59.275Z,1006.37
2022-12-17T00:21:59.267Z,1006.46
2022-12-17T00:26:59.213Z,1006.46
2022-12-17T00:31:59.205Z,1006.59
2022-12-17T00:36:59.098Z,1006.62
2022-12-17T00:41:59.123Z,1006.70
2022-12-17T00:46:59.063Z,1006.79
2022-12-17T00:51:59.123Z,1006.79
2022-12-17T00:56:59.005Z,1006.80
2022-12-17T01:01:58.918Z,1006.89
2022-12-17T01:06:58.789Z,1006.85
2022-12-17T01:11:58.720Z,1006.81
2022-12-17T01:16:58.694Z,1006.88
2022-12-17T01:21:58.609Z,1006.89
2022-12-17T01:26:58.600Z,1006.95
2022-12-17T01:31:58.640Z,1006.96
2022-12-17T01:36:58.488Z,1007.09
2022-12-17T01:41:58.553Z,1007.11
2022-12-17T01:46:58.374Z,1007.16
2022-12-17T01:51:58.309Z,1007.20
2022-12-17T01:56:58.268Z,1007.19
2022-12-17T02:01:58.366Z,1007.28
2022-12-17T02:06:58.167Z,1007.26
2022-12-17T02:11:58.082Z,1007.29
2022-12-17T02:16:58.087Z,1007.28
2022-12-17T02:21:58.034Z,1007.26
2022-12-17T02:26:57.934Z,1007.27
2022-12-17T02:31:59.042Z,1007.25
2022-12-17T02:36:58.035Z,1007.30
2022-12-17T02:41:57.775Z,1007.33
2022-12-17T02:46:57.760Z,1007.36
2022-12-17T02:51:57.702Z,1007.34
2022-12-17T02:56:57.634Z,1007.32
2022-12-17T03:01:57.709Z,1007.37
2022-12-17T03:06:57.625Z,1007.39
2022-12-17T03:11:57.475Z,1007.47
2022-12-17T03:16:57.578Z,1007.54
2022-12-17T03:21:57.368Z,1007.60
2022-12-17T03:26:57.291Z,1007.56
2022-12-17T03:31:57.241Z,1007.55
2022-12-17T03:36:57.162Z,1007.60
2022-12-17T03:41:57.148Z,1007.57
2022-12-17T03:46:57.029Z,1007.61
2022-12-17T03:51:57.069Z,1007.69
2022-12-17T03:56:57.076Z,1007.67
2022-12-17T04:01:57.046Z,1007.71
2022-12-17T04:06:56.895Z,1007.60
2022-12-17T04:11:56.856Z,1007.60
2022-12-17T04:16:56.793Z,1007.64
2022-12-17T04:21:56.820Z,1007.67
2022-12-17T04:26:59.163Z,1007.75
2022-12-17T04:31:57.621Z,1007.88
2022-12-17T04:36:56.588Z,1008.00
2022-12-17T04:41:58.661Z,1008.06
2022-12-17T04:46:56.435Z,1008.14
2022-12-17T04:51:56.463Z,1008.06
2022-12-17T04:56:56.480Z,1008.08
2022-12-17T05:01:56.531Z,1008.15
2022-12-17T05:06:56.207Z,1008.14
2022-12-17T05:11:56.172Z,1008.14
2022-12-17T05:16:56.136Z,1008.20
2022-12-17T05:21:56.056Z,1008.29
2022-12-17T05:26:56.032Z,1008.34
2022-12-17T05:31:55.933Z,1008.29
2022-12-17T05:36:55.996Z,1008.36
2022-12-17T05:41:55.950Z,1008.39
2022-12-17T05:46:55.869Z,1008.46
2022-12-17T05:51:55.791Z,1008.48
2022-12-17T05:56:55.665Z,1008.50
2022-12-17T06:01:55.725Z,1008.46
2022-12-17T06:06:55.563Z,1008.49
2022-12-17T06:11:59.512Z,1008.49
2022-12-17T06:16:56.566Z,1008.61
2022-12-17T06:21:55.439Z,1008.69
2022-12-17T06:26:55.376Z,1008.66
2022-12-17T06:31:55.365Z,1008.69
2022-12-17T06:36:55.392Z,1008.85
2022-12-17T06:42:02.138Z,1008.85
2022-12-17T06:46:56.234Z,1008.92
2022-12-17T06:51:55.116Z,1008.96
2022-12-17T06:56:55.053Z,1009.00
2022-12-17T07:01:55.080Z,1009.01
2022-12-17T07:06:55.028Z,1009.07
2022-12-17T07:11:54.987Z,1009.19
2022-12-17T07:16:54.843Z,1009.22
2022-12-17T07:21:54.795Z,1009.29
2022-12-17T07:26:54.742Z,1009.36
2022-12-17T07:31:55.090Z,1009.35
2022-12-17T07:36:54.637Z,1009.36
2022-12-17T07:41:54.738Z,1009.38
2022-12-17T07:46:54.635Z,1009.48
2022-12-17T07:51:54.556Z,1009.53
2022-12-17T07:56:54.481Z,1009.63
2022-12-17T08:01:54.502Z,1009.73
2022-12-17T08:07:00.634Z,1009.76
2022-12-17T08:11:55.299Z,1009.81
2022-12-17T08:16:54.321Z,1009.88
2022-12-17T08:21:54.213Z,1009.89
2022-12-17T08:26:54.175Z,1009.95
2022-12-17T08:31:54.097Z,1009.99
2022-12-17T08:36:54.034Z,1010.14
2022-12-17T08:41:55.409Z,1010.12
2022-12-17T08:46:53.888Z,1010.10
2022-12-17T08:51:53.900Z,1010.13
2022-12-17T08:56:53.948Z,1010.19
2022-12-17T09:01:53.921Z,1010.16
2022-12-17T09:06:53.719Z,1010.22
2022-12-17T09:11:53.639Z,1010.23
2022-12-17T09:16:53.665Z,1010.21
2022-12-17T09:21:53.542Z,1010.19
2022-12-17T09:26:53.493Z,1010.16
2022-12-17T09:31:53.463Z,1010.18
2022-12-17T09:36:53.381Z,1010.13
2022-12-17T09:41:53.327Z,1010.12
2022-12-17T09:46:53.295Z,1010.14
2022-12-17T09:51:53.208Z,1010.26
2022-12-17T09:56:53.237Z,1010.41
2022-12-17T10:01:53.365Z,1010.44
2022-12-17T10:06:53.121Z,1010.38
2022-12-17T10:11:53.161Z,1010.34
2022-12-17T10:16:53.001Z,1010.32
2022-12-17T10:21:52.948Z,1010.30
2022-12-17T10:26:52.902Z,1010.30
2022-12-17T10:31:52.873Z,1010.41
2022-12-17T10:36:52.822Z,1010.51
2022-12-17T10:41:52.729Z,1010.53
2022-12-17T10:46:52.690Z,1010.58
2022-12-17T10:51:52.589Z,1010.52
2022-12-17T10:56:52.642Z,1010.60
2022-12-17T11:01:52.756Z,1010.65
2022-12-17T11:06:59.039Z,1010.62
2022-12-17T11:11:52.484Z,1010.63
2022-12-17T11:16:52.332Z,1010.65
2022-12-17T11:21:52.427Z,1010.65
2022-12-17T11:26:52.459Z,1010.58
2022-12-17T11:31:53.403Z,1010.63
2022-12-17T11:36:53.266Z,1010.64
2022-12-17T11:41:52.281Z,1010.62
2022-12-17T11:46:52.206Z,1010.59
2022-12-17T11:51:52.099Z,1010.63
2022-12-17T11:56:52.922Z,1010.63
2022-12-17T12:01:51.971Z,1010.63
2022-12-17T12:06:51.836Z,1010.63
2022-12-17T12:11:51.880Z,1010.65
2022-12-17T12:16:51.771Z,1010.64
2022-12-17T12:21:51.658Z,1010.55
2022-12-17T12:26:52.581Z,1010.54
2022-12-17T12:31:51.629Z,1010.46
2022-12-17T12:36:51.628Z,1010.46
2022-12-17T12:41:51.502Z,1010.41
2022-12-17T12:46:51.489Z,1010.50
2022-12-17T12:51:51.544Z,1010.49
2022-12-17T12:56:51.241Z,1010.47
2022-12-17T13:01:51.561Z,1010.36
2022-12-17T13:06:51.278Z,1010.42
2022-12-17T13:11:51.191Z,1010.39
2022-12-17T13:16:51.245Z,1010.33
2022-12-17T13:21:51.038Z,1010.25
2022-12-17T13:26:50.972Z,1010.19
2022-12-17T13:31:51.017Z,1010.14
2022-12-17T13:36:56.434Z,1010.12
2022-12-17T13:41:50.903Z,1010.11
2022-12-17T14:32:49.267Z,1010.37
2022-12-17T14:37:49.293Z,1010.39
2022-12-17T14:42:49.208Z,1010.36
2022-12-17T14:47:49.080Z,1010.32
2022-12-17T14:52:49.064Z,1010.33
2022-12-17T14:57:49.145Z,1010.35
2022-12-17T15:02:49.267Z,1010.41
2022-12-17T15:07:48.998Z,1010.45
2022-12-17T15:12:48.770Z,1010.44
2022-12-17T15:17:48.950Z,1010.39
2022-12-17T15:22:49.894Z,1010.41
2022-12-17T15:27:48.683Z,1010.52
2022-12-17T15:32:48.616Z,1010.60
2022-12-17T15:37:48.587Z,1010.64
2022-12-17T15:42:48.450Z,1010.72
2022-12-17T15:47:48.456Z,1010.74
2022-12-17T15:52:48.382Z,1010.77
2022-12-17T15:57:48.456Z,1010.83
2022-12-17T16:02:48.609Z,1010.89
2022-12-17T16:07:48.226Z,1010.89
2022-12-17T16:12:48.201Z,1010.89
2022-12-17T16:17:48.130Z,1010.92
2022-12-17T16:22:48.041Z,1011.02
2022-12-17T16:27:48.062Z,1011.09
2022-12-17T16:32:47.969Z,1011.16
2022-12-17T16:37:47.926Z,1011.20
2022-12-17T16:42:47.911Z,1011.20
2022-12-17T16:47:47.772Z,1011.28
2022-12-17T16:52:47.787Z,1011.34
2022-12-17T16:57:47.723Z,1011.37
2022-12-17T17:02:52.976Z,1011.41
2022-12-17T17:07:48.612Z,1011.49
2022-12-17T17:12:47.557Z,1011.34
2022-12-17T17:17:55.828Z,1011.26
2022-12-17T17:22:48.430Z,1011.21
2022-12-17T18:34:50.479Z,1011.52
2022-12-17T18:39:50.241Z,1011.60
2022-12-17T18:45:18.621Z,1011.57
2022-12-17T18:49:50.008Z,1011.66
2022-12-17T18:54:49.899Z,1011.68
2022-12-17T18:59:49.922Z,1011.69
2022-12-17T19:04:49.860Z,1011.67
2022-12-17T19:09:49.959Z,1011.72
2022-12-17T19:14:49.768Z,1011.74
2022-12-17T19:19:50.988Z,1011.81
2022-12-17T19:24:49.691Z,1011.75
2022-12-17T19:29:50.133Z,1011.74
2022-12-17T19:34:49.529Z,1011.76
2022-12-17T19:39:50.507Z,1011.67
2022-12-17T19:44:50.457Z,1011.70
2022-12-17T19:49:49.426Z,1011.73
2022-12-17T19:54:49.388Z,1011.82
2022-12-17T19:59:49.251Z,1011.88
2022-12-17T20:04:49.247Z,1011.93
2022-12-17T20:09:49.168Z,1011.93
2022-12-17T20:14:49.116Z,1012.03
2022-12-17T20:19:49.048Z,1012.05
2022-12-17T20:24:49.046Z,1012.04
2022-12-17T20:29:48.862Z,1012.05
2022-12-17T20:34:48.932Z,1012.03
2022-12-17T20:39:48.869Z,1012.03
2022-12-17T20:44:53.428Z,1012.01
2022-12-17T20:49:49.786Z,1012.06
2022-12-17T20:54:48.626Z,1012.08
2022-12-17T20:59:48.599Z,1012.12
2022-12-17T21:04:48.528Z,1012.12
2022-12-17T21:09:48.488Z,1012.19
2022-12-17T21:14:48.415Z,1012.21
2022-12-17T21:19:48.396Z,1012.23
2022-12-17T21:24:48.330Z,1012.21
2022-12-17T21:29:48.302Z,1012.25
2022-12-17T21:34:48.181Z,1012.15
2022-12-17T21:39:48.252Z,1012.18
2022-12-17T21:44:48.167Z,1012.13
2022-12-17T21:49:48.114Z,1012.17
2022-12-17T21:54:48.046Z,1012.26
2022-12-17T21:59:47.999Z,1012.19
2022-12-17T22:04:47.978Z,1012.27
2022-12-17T22:10:11.129Z,1012.27
2022-12-17T22:14:48.853Z,1012.34
2022-12-17T22:19:47.754Z,1012.21
2022-12-17T22:24:47.701Z,1012.19
2022-12-17T22:29:47.699Z,1012.19
2022-12-17T22:36:58.288Z,1012.27
2022-12-17T22:44:28.701Z,1012.35
2022-12-17T22:44:53.169Z,1012.28
2022-12-17T22:49:48.462Z,1012.26
2022-12-17T22:54:47.352Z,1012.33
2022-12-17T22:59:47.283Z,1012.33
2022-12-17T23:04:47.315Z,1012.36
2022-12-17T23:09:47.220Z,1012.37
2022-12-17T23:14:47.135Z,1012.45
2022-12-17T23:19:47.283Z,1012.42
2022-12-17T23:24:47.129Z,1012.48
2022-12-17T23:29:55.899Z,1012.44
2022-12-17T23:34:46.826Z,1012.32
2022-12-17T23:39:46.807Z,1012.38
2022-12-17T23:44:46.766Z,1012.34
2022-12-17T23:49:46.734Z,1012.33
2022-12-17T23:54:46.672Z,1012.34
2022-12-17T23:59:46.695Z,1012.30
